sensor_id;sensor_type;location;lat;lon;timestamp;temperature;humidity
40123;DHT22;25832;45.490;4.912;2023-02-03T00:01:32;6.20;99.90
40123;DHT22;25832;45.490;4.912;2023-02-03T00:03:58;6.10;99.90
40123;DHT22;25832;45.490;4.912;2023-02-03T00:06:24;6.00;99.90
40123;DHT22;25832;45.490;4.912;2023-02-03T00:08:53;5.90;99.90
40123;DHT22;25832;45.490;4.912;2023-02-03T00:11:20;5.80;99.90
40123;DHT22;25832;45.490;4.912;2023-02-03T00:13:46;5.70;99.90
40123;DHT22;25832;45.490;4.912;2023-02-03T00:16:12;5.70;99.90
40123;DHT22;25832;45.490;4.912;2023-02-03T00:18:37;5.70;99.90
40123;DHT22;25832;45.490;4.912;2023-02-03T00:21:04;5.70;99.90
40123;DHT22;25832;45.490;4.912;2023-02-03T00:23:29;5.60;99.90
40123;DHT22;25832;45.490;4.912;2023-02-03T00:25:57;5.60;99.90
40123;DHT22;25832;45.490;4.912;2023-02-03T00:28:23;5.70;99.90
40123;DHT22;25832;45.490;4.912;2023-02-03T00:30:52;5.70;99.90
40123;DHT22;25832;45.490;4.912;2023-02-03T00:33:18;5.70;99.90
40123;DHT22;25832;45.490;4.912;2023-02-03T00:35:44;5.80;99.90
40123;DHT22;25832;45.490;4.912;2023-02-03T00:38:09;5.80;99.90
40123;DHT22;25832;45.490;4.912;2023-02-03T00:40:35;5.70;99.90
40123;DHT22;25832;45.490;4.912;2023-02-03T00:43:00;5.70;99.90
40123;DHT22;25832;45.490;4.912;2023-02-03T00:45:26;5.70;99.90
40123;DHT22;25832;45.490;4.912;2023-02-03T00:47:52;5.70;99.90
40123;DHT22;25832;45.490;4.912;2023-02-03T00:50:17;5.70;99.90
40123;DHT22;25832;45.490;4.912;2023-02-03T00:52:43;5.80;99.90
40123;DHT22;25832;45.490;4.912;2023-02-03T00:55:08;5.80;99.90
40123;DHT22;25832;45.490;4.912;2023-02-03T00:57:34;5.70;99.90
40123;DHT22;25832;45.490;4.912;2023-02-03T01:00:00;5.70;99.90
40123;DHT22;25832;45.490;4.912;2023-02-03T01:02:25;5.70;99.90
40123;DHT22;25832;45.490;4.912;2023-02-03T01:04:51;5.70;99.90
40123;DHT22;25832;45.490;4.912;2023-02-03T01:07:17;5.60;99.90
40123;DHT22;25832;45.490;4.912;2023-02-03T01:09:43;5.60;99.90
40123;DHT22;25832;45.490;4.912;2023-02-03T01:12:08;5.60;99.90
40123;DHT22;25832;45.490;4.912;2023-02-03T01:14:34;5.60;99.90
40123;DHT22;25832;45.490;4.912;2023-02-03T01:17:00;5.60;99.90
40123;DHT22;25832;45.490;4.912;2023-02-03T01:19:25;5.60;99.90
40123;DHT22;25832;45.490;4.912;2023-02-03T01:21:51;5.60;99.90
40123;DHT22;25832;45.490;4.912;2023-02-03T01:24:17;5.60;99.90
40123;DHT22;25832;45.490;4.912;2023-02-03T01:26:42;5.60;99.90
40123;DHT22;25832;45.490;4.912;2023-02-03T01:29:08;5.70;99.90
40123;DHT22;25832;45.490;4.912;2023-02-03T01:31:37;5.70;99.90
40123;DHT22;25832;45.490;4.912;2023-02-03T01:34:10;5.70;99.90
40123;DHT22;25832;45.490;4.912;2023-02-03T01:36:36;5.80;99.90
40123;DHT22;25832;45.490;4.912;2023-02-03T01:39:03;5.90;99.90
40123;DHT22;25832;45.490;4.912;2023-02-03T01:41:31;5.90;99.90
40123;DHT22;25832;45.490;4.912;2023-02-03T01:43:59;6.00;99.90
40123;DHT22;25832;45.490;4.912;2023-02-03T01:47:01;6.10;99.90
40123;DHT22;25832;45.490;4.912;2023-02-03T01:49:32;6.10;99.90
40123;DHT22;25832;45.490;4.912;2023-02-03T01:52:00;6.10;99.90
40123;DHT22;25832;45.490;4.912;2023-02-03T01:54:29;6.10;99.90
40123;DHT22;25832;45.490;4.912;2023-02-03T01:57:00;6.10;99.90
40123;DHT22;25832;45.490;4.912;2023-02-03T01:59:29;6.10;99.90
40123;DHT22;25832;45.490;4.912;2023-02-03T02:01:55;6.10;99.90
40123;DHT22;25832;45.490;4.912;2023-02-03T02:04:25;6.10;99.90
40123;DHT22;25832;45.490;4.912;2023-02-03T02:06:51;6.10;99.90
40123;DHT22;25832;45.490;4.912;2023-02-03T02:09:17;6.10;99.90
40123;DHT22;25832;45.490;4.912;2023-02-03T02:11:43;6.10;99.90
40123;DHT22;25832;45.490;4.912;2023-02-03T02:14:09;6.10;99.90
40123;DHT22;25832;45.490;4.912;2023-02-03T02:38:04;6.10;99.90
40123;DHT22;25832;45.490;4.912;2023-02-03T02:40:43;6.10;99.90
40123;DHT22;25832;45.490;4.912;2023-02-03T02:45:49;6.10;99.90
40123;DHT22;25832;45.490;4.912;2023-02-03T02:48:21;6.10;99.90
40123;DHT22;25832;45.490;4.912;2023-02-03T02:50:52;6.10;99.90
40123;DHT22;25832;45.490;4.912;2023-02-03T02:53:20;6.10;99.90
40123;DHT22;25832;45.490;4.912;2023-02-03T02:55:48;6.10;99.90
40123;DHT22;25832;45.490;4.912;2023-02-03T02:58:16;6.10;99.90
40123;DHT22;25832;45.490;4.912;2023-02-03T03:00:43;6.00;99.90
40123;DHT22;25832;45.490;4.912;2023-02-03T03:03:21;6.00;99.90
40123;DHT22;25832;45.490;4.912;2023-02-03T03:05:54;6.00;99.90
40123;DHT22;25832;45.490;4.912;2023-02-03T03:08:45;6.10;99.90
40123;DHT22;25832;45.490;4.912;2023-02-03T03:11:09;6.10;99.90
40123;DHT22;25832;45.490;4.912;2023-02-03T03:13:41;6.00;99.90
40123;DHT22;25832;45.490;4.912;2023-02-03T03:16:08;6.00;99.90
40123;DHT22;25832;45.490;4.912;2023-02-03T03:18:56;6.00;99.90
40123;DHT22;25832;45.490;4.912;2023-02-03T03:21:36;5.90;99.90
40123;DHT22;25832;45.490;4.912;2023-02-03T03:24:09;5.80;99.90
40123;DHT22;25832;45.490;4.912;2023-02-03T03:26:39;5.80;99.90
40123;DHT22;25832;45.490;4.912;2023-02-03T03:29:11;5.90;99.90
40123;DHT22;25832;45.490;4.912;2023-02-03T03:31:39;5.80;99.90
40123;DHT22;25832;45.490;4.912;2023-02-03T03:34:07;5.80;99.90
40123;DHT22;25832;45.490;4.912;2023-02-03T03:44:26;5.90;99.90
40123;DHT22;25832;45.490;4.912;2023-02-03T03:47:09;5.90;99.90
40123;DHT22;25832;45.490;4.912;2023-02-03T03:49:38;5.90;99.90
40123;DHT22;25832;45.490;4.912;2023-02-03T03:52:07;6.00;99.90
40123;DHT22;25832;45.490;4.912;2023-02-03T03:54:35;6.00;99.90
40123;DHT22;25832;45.490;4.912;2023-02-03T03:57:24;6.00;99.90
40123;DHT22;25832;45.490;4.912;2023-02-03T03:59:51;5.90;99.90
40123;DHT22;25832;45.490;4.912;2023-02-03T04:02:19;5.90;99.90
40123;DHT22;25832;45.490;4.912;2023-02-03T04:04:46;5.90;99.90
40123;DHT22;25832;45.490;4.912;2023-02-03T04:07:13;5.90;99.90
40123;DHT22;25832;45.490;4.912;2023-02-03T04:09:39;5.90;99.90
40123;DHT22;25832;45.490;4.912;2023-02-03T04:12:13;5.90;99.90
40123;DHT22;25832;45.490;4.912;2023-02-03T04:14:39;6.00;99.90
40123;DHT22;25832;45.490;4.912;2023-02-03T04:17:05;6.00;99.90
40123;DHT22;25832;45.490;4.912;2023-02-03T04:19:31;6.00;99.90
40123;DHT22;25832;45.490;4.912;2023-02-03T04:21:57;6.00;99.90
40123;DHT22;25832;45.490;4.912;2023-02-03T04:24:22;6.00;99.90
40123;DHT22;25832;45.490;4.912;2023-02-03T04:26:48;6.00;99.90
40123;DHT22;25832;45.490;4.912;2023-02-03T04:29:13;6.00;99.90
40123;DHT22;25832;45.490;4.912;2023-02-03T04:31:39;6.00;99.90
40123;DHT22;25832;45.490;4.912;2023-02-03T04:34:05;6.00;99.90
40123;DHT22;25832;45.490;4.912;2023-02-03T04:36:31;6.00;99.90
40123;DHT22;25832;45.490;4.912;2023-02-03T04:38:56;6.00;99.90
40123;DHT22;25832;45.490;4.912;2023-02-03T04:41:22;6.00;99.90
40123;DHT22;25832;45.490;4.912;2023-02-03T04:43:48;6.00;99.90
40123;DHT22;25832;45.490;4.912;2023-02-03T04:46:13;6.00;99.90
40123;DHT22;25832;45.490;4.912;2023-02-03T04:48:39;6.00;99.90
40123;DHT22;25832;45.490;4.912;2023-02-03T04:51:07;6.00;99.90
40123;DHT22;25832;45.490;4.912;2023-02-03T04:53:33;6.00;99.90
40123;DHT22;25832;45.490;4.912;2023-02-03T04:55:58;5.90;99.90
40123;DHT22;25832;45.490;4.912;2023-02-03T04:58:24;6.00;99.90
40123;DHT22;25832;45.490;4.912;2023-02-03T05:00:54;6.00;99.90
40123;DHT22;25832;45.490;4.912;2023-02-03T05:03:20;5.90;99.90
40123;DHT22;25832;45.490;4.912;2023-02-03T05:05:46;5.90;99.90
40123;DHT22;25832;45.490;4.912;2023-02-03T05:08:12;6.00;99.90
40123;DHT22;25832;45.490;4.912;2023-02-03T05:10:37;6.00;99.90
40123;DHT22;25832;45.490;4.912;2023-02-03T05:13:03;6.00;99.90
40123;DHT22;25832;45.490;4.912;2023-02-03T05:15:28;6.00;99.90
40123;DHT22;25832;45.490;4.912;2023-02-03T05:17:54;6.00;99.90
40123;DHT22;25832;45.490;4.912;2023-02-03T05:20:20;6.00;99.90
40123;DHT22;25832;45.490;4.912;2023-02-03T05:22:46;6.00;99.90
40123;DHT22;25832;45.490;4.912;2023-02-03T05:25:12;6.00;99.90
40123;DHT22;25832;45.490;4.912;2023-02-03T05:27:38;5.90;99.90
40123;DHT22;25832;45.490;4.912;2023-02-03T05:30:05;5.90;99.90
40123;DHT22;25832;45.490;4.912;2023-02-03T05:32:31;5.90;99.90
40123;DHT22;25832;45.490;4.912;2023-02-03T05:34:56;5.90;99.90
40123;DHT22;25832;45.490;4.912;2023-02-03T05:37:22;5.90;99.90
40123;DHT22;25832;45.490;4.912;2023-02-03T05:39:48;5.80;99.90
40123;DHT22;25832;45.490;4.912;2023-02-03T05:42:13;5.70;99.90
40123;DHT22;25832;45.490;4.912;2023-02-03T05:44:39;5.70;99.90
40123;DHT22;25832;45.490;4.912;2023-02-03T05:47:05;5.60;99.90
40123;DHT22;25832;45.490;4.912;2023-02-03T05:49:30;5.60;99.90
40123;DHT22;25832;45.490;4.912;2023-02-03T05:51:56;5.50;99.90
40123;DHT22;25832;45.490;4.912;2023-02-03T05:54:22;5.50;99.90
40123;DHT22;25832;45.490;4.912;2023-02-03T05:56:48;5.40;99.90
40123;DHT22;25832;45.490;4.912;2023-02-03T05:59:13;5.40;99.90
40123;DHT22;25832;45.490;4.912;2023-02-03T06:01:39;5.30;99.90
40123;DHT22;25832;45.490;4.912;2023-02-03T06:04:05;5.30;99.90
40123;DHT22;25832;45.490;4.912;2023-02-03T06:06:31;5.30;99.90
40123;DHT22;25832;45.490;4.912;2023-02-03T06:09:01;5.30;99.90
40123;DHT22;25832;45.490;4.912;2023-02-03T06:11:27;5.30;99.90
40123;DHT22;25832;45.490;4.912;2023-02-03T06:13:54;5.30;99.90
40123;DHT22;25832;45.490;4.912;2023-02-03T06:16:20;5.20;99.90
40123;DHT22;25832;45.490;4.912;2023-02-03T06:18:49;5.20;99.90
40123;DHT22;25832;45.490;4.912;2023-02-03T06:21:15;5.20;99.90
40123;DHT22;25832;45.490;4.912;2023-02-03T06:23:41;5.10;99.90
40123;DHT22;25832;45.490;4.912;2023-02-03T06:26:06;5.10;99.90
40123;DHT22;25832;45.490;4.912;2023-02-03T06:28:32;5.10;99.90
40123;DHT22;25832;45.490;4.912;2023-02-03T06:30:58;5.10;99.90
40123;DHT22;25832;45.490;4.912;2023-02-03T06:33:23;5.00;99.90
40123;DHT22;25832;45.490;4.912;2023-02-03T06:35:49;5.00;99.90
40123;DHT22;25832;45.490;4.912;2023-02-03T06:38:15;5.10;99.90
40123;DHT22;25832;45.490;4.912;2023-02-03T06:40:40;5.00;99.90
40123;DHT22;25832;45.490;4.912;2023-02-03T06:43:06;4.90;99.90
40123;DHT22;25832;45.490;4.912;2023-02-03T06:45:32;4.90;99.90
40123;DHT22;25832;45.490;4.912;2023-02-03T06:47:58;4.90;99.90
40123;DHT22;25832;45.490;4.912;2023-02-03T06:50:24;4.90;99.90
40123;DHT22;25832;45.490;4.912;2023-02-03T06:52:50;4.90;99.90
40123;DHT22;25832;45.490;4.912;2023-02-03T06:55:15;4.90;99.90
40123;DHT22;25832;45.490;4.912;2023-02-03T06:57:45;4.90;99.90
40123;DHT22;25832;45.490;4.912;2023-02-03T07:00:13;4.90;99.90
40123;DHT22;25832;45.490;4.912;2023-02-03T07:02:39;4.80;99.90
40123;DHT22;25832;45.490;4.912;2023-02-03T07:05:05;4.80;99.90
40123;DHT22;25832;45.490;4.912;2023-02-03T07:07:31;4.80;99.90
40123;DHT22;25832;45.490;4.912;2023-02-03T07:09:59;4.80;99.90
40123;DHT22;25832;45.490;4.912;2023-02-03T07:12:24;4.80;99.90
40123;DHT22;25832;45.490;4.912;2023-02-03T07:14:50;4.90;99.90
40123;DHT22;25832;45.490;4.912;2023-02-03T07:17:15;4.90;99.90
40123;DHT22;25832;45.490;4.912;2023-02-03T07:19:41;5.00;99.90
40123;DHT22;25832;45.490;4.912;2023-02-03T07:22:11;5.00;99.90
40123;DHT22;25832;45.490;4.912;2023-02-03T07:24:37;5.00;99.90
40123;DHT22;25832;45.490;4.912;2023-02-03T07:27:03;5.10;99.90
40123;DHT22;25832;45.490;4.912;2023-02-03T07:29:29;5.20;99.90
40123;DHT22;25832;45.490;4.912;2023-02-03T07:31:54;5.30;99.90
40123;DHT22;25832;45.490;4.912;2023-02-03T07:34:20;5.40;99.90
40123;DHT22;25832;45.490;4.912;2023-02-03T07:36:46;5.50;99.90
40123;DHT22;25832;45.490;4.912;2023-02-03T07:39:11;5.60;99.90
40123;DHT22;25832;45.490;4.912;2023-02-03T07:41:37;5.70;99.90
40123;DHT22;25832;45.490;4.912;2023-02-03T07:44:03;5.70;99.90
40123;DHT22;25832;45.490;4.912;2023-02-03T07:46:29;5.80;99.90
40123;DHT22;25832;45.490;4.912;2023-02-03T07:48:55;5.90;99.90
40123;DHT22;25832;45.490;4.912;2023-02-03T07:51:20;5.90;99.90
40123;DHT22;25832;45.490;4.912;2023-02-03T07:53:46;5.90;99.90
40123;DHT22;25832;45.490;4.912;2023-02-03T07:56:12;5.90;99.90
40123;DHT22;25832;45.490;4.912;2023-02-03T07:58:37;5.90;99.90
40123;DHT22;25832;45.490;4.912;2023-02-03T08:01:13;5.90;99.90
40123;DHT22;25832;45.490;4.912;2023-02-03T08:03:39;6.00;99.90
40123;DHT22;25832;45.490;4.912;2023-02-03T08:06:05;6.00;99.90
40123;DHT22;25832;45.490;4.912;2023-02-03T08:08:32;6.00;99.90
40123;DHT22;25832;45.490;4.912;2023-02-03T08:10:57;6.10;99.90
40123;DHT22;25832;45.490;4.912;2023-02-03T08:13:23;6.10;99.90
40123;DHT22;25832;45.490;4.912;2023-02-03T08:15:48;6.20;99.90
40123;DHT22;25832;45.490;4.912;2023-02-03T08:18:14;6.20;99.90
40123;DHT22;25832;45.490;4.912;2023-02-03T08:20:40;6.30;99.90
40123;DHT22;25832;45.490;4.912;2023-02-03T08:23:06;6.30;99.90
40123;DHT22;25832;45.490;4.912;2023-02-03T08:25:32;6.30;99.90
40123;DHT22;25832;45.490;4.912;2023-02-03T08:27:57;6.40;99.90
40123;DHT22;25832;45.490;4.912;2023-02-03T08:30:24;6.40;99.90
40123;DHT22;25832;45.490;4.912;2023-02-03T08:32:49;6.40;99.90
40123;DHT22;25832;45.490;4.912;2023-02-03T08:35:15;6.50;99.90
40123;DHT22;25832;45.490;4.912;2023-02-03T08:37:41;6.60;99.90
40123;DHT22;25832;45.490;4.912;2023-02-03T08:40:08;6.60;99.90
40123;DHT22;25832;45.490;4.912;2023-02-03T08:42:33;6.60;99.90
40123;DHT22;25832;45.490;4.912;2023-02-03T08:44:59;6.70;99.90
40123;DHT22;25832;45.490;4.912;2023-02-03T08:47:25;6.70;99.90
40123;DHT22;25832;45.490;4.912;2023-02-03T08:49:51;6.80;99.90
40123;DHT22;25832;45.490;4.912;2023-02-03T08:52:16;6.90;99.90
40123;DHT22;25832;45.490;4.912;2023-02-03T08:54:42;6.90;99.90
40123;DHT22;25832;45.490;4.912;2023-02-03T08:57:08;6.90;99.90
40123;DHT22;25832;45.490;4.912;2023-02-03T08:59:36;6.90;99.90
40123;DHT22;25832;45.490;4.912;2023-02-03T09:02:03;6.80;99.90
40123;DHT22;25832;45.490;4.912;2023-02-03T09:04:30;6.90;99.90
40123;DHT22;25832;45.490;4.912;2023-02-03T09:06:58;6.90;99.90
40123;DHT22;25832;45.490;4.912;2023-02-03T09:09:24;7.00;99.90
40123;DHT22;25832;45.490;4.912;2023-02-03T09:11:51;7.10;99.90
40123;DHT22;25832;45.490;4.912;2023-02-03T09:14:17;7.10;99.90
40123;DHT22;25832;45.490;4.912;2023-02-03T09:16:43;7.20;99.90
40123;DHT22;25832;45.490;4.912;2023-02-03T09:19:09;7.30;99.90
40123;DHT22;25832;45.490;4.912;2023-02-03T09:21:34;7.50;99.90
40123;DHT22;25832;45.490;4.912;2023-02-03T09:24:01;7.50;99.80
40123;DHT22;25832;45.490;4.912;2023-02-03T09:26:27;7.60;99.70
40123;DHT22;25832;45.490;4.912;2023-02-03T09:28:53;7.60;99.30
40123;DHT22;25832;45.490;4.912;2023-02-03T09:31:18;7.70;99.30
40123;DHT22;25832;45.490;4.912;2023-02-03T09:33:44;7.70;99.10
40123;DHT22;25832;45.490;4.912;2023-02-03T09:36:11;7.80;99.20
40123;DHT22;25832;45.490;4.912;2023-02-03T09:38:37;7.80;98.80
40123;DHT22;25832;45.490;4.912;2023-02-03T09:43:54;7.90;98.60
40123;DHT22;25832;45.490;4.912;2023-02-03T09:46:27;7.90;98.10
40123;DHT22;25832;45.490;4.912;2023-02-03T09:48:57;8.00;99.50
40123;DHT22;25832;45.490;4.912;2023-02-03T09:51:42;8.00;98.80
40123;DHT22;25832;45.490;4.912;2023-02-03T09:56:50;8.10;98.70
40123;DHT22;25832;45.490;4.912;2023-02-03T09:59:19;8.10;98.00
40123;DHT22;25832;45.490;4.912;2023-02-03T10:04:31;8.20;97.80
40123;DHT22;25832;45.490;4.912;2023-02-03T10:22:31;8.70;98.40
40123;DHT22;25832;45.490;4.912;2023-02-03T10:27:28;8.80;97.70
40123;DHT22;25832;45.490;4.912;2023-02-03T10:32:42;8.60;96.40
40123;DHT22;25832;45.490;4.912;2023-02-03T10:35:12;8.60;97.20
40123;DHT22;25832;45.490;4.912;2023-02-03T10:37:44;8.70;96.60
40123;DHT22;25832;45.490;4.912;2023-02-03T10:40:13;8.80;97.70
40123;DHT22;25832;45.490;4.912;2023-02-03T10:42:39;8.90;97.70
40123;DHT22;25832;45.490;4.912;2023-02-03T10:45:24;9.00;96.10
40123;DHT22;25832;45.490;4.912;2023-02-03T10:47:52;9.10;96.40
40123;DHT22;25832;45.490;4.912;2023-02-03T10:50:24;9.10;96.00
40123;DHT22;25832;45.490;4.912;2023-02-03T10:53:31;9.00;96.50
40123;DHT22;25832;45.490;4.912;2023-02-03T10:56:09;8.90;96.30
40123;DHT22;25832;45.490;4.912;2023-02-03T10:58:37;8.90;96.60
40123;DHT22;25832;45.490;4.912;2023-02-03T11:01:07;8.70;96.70
40123;DHT22;25832;45.490;4.912;2023-02-03T11:03:34;8.70;97.00
40123;DHT22;25832;45.490;4.912;2023-02-03T11:06:11;8.60;97.80
40123;DHT22;25832;45.490;4.912;2023-02-03T11:08:39;8.70;97.50
40123;DHT22;25832;45.490;4.912;2023-02-03T11:11:30;8.70;98.50
40123;DHT22;25832;45.490;4.912;2023-02-03T11:16:27;8.90;97.80
40123;DHT22;25832;45.490;4.912;2023-02-03T11:19:01;9.00;97.10
40123;DHT22;25832;45.490;4.912;2023-02-03T11:24:17;9.20;96.80
40123;DHT22;25832;45.490;4.912;2023-02-03T11:31:54;9.40;96.00
40123;DHT22;25832;45.490;4.912;2023-02-03T11:34:38;9.40;96.70
40123;DHT22;25832;45.490;4.912;2023-02-03T11:37:39;9.40;96.70
40123;DHT22;25832;45.490;4.912;2023-02-03T11:42:38;9.70;97.60
40123;DHT22;25832;45.490;4.912;2023-02-03T11:53:22;9.80;96.20
40123;DHT22;25832;45.490;4.912;2023-02-03T11:58:40;10.00;95.80
40123;DHT22;25832;45.490;4.912;2023-02-03T12:10:27;9.90;96.30
40123;DHT22;25832;45.490;4.912;2023-02-03T12:15:38;9.80;96.90
40123;DHT22;25832;45.490;4.912;2023-02-03T12:26:23;9.50;95.80
40123;DHT22;25832;45.490;4.912;2023-02-03T12:34:27;9.40;96.50
40123;DHT22;25832;45.490;4.912;2023-02-03T12:37:06;9.50;95.60
40123;DHT22;25832;45.490;4.912;2023-02-03T12:42:04;9.70;97.20
40123;DHT22;25832;45.490;4.912;2023-02-03T12:44:42;9.80;96.40
40123;DHT22;25832;45.490;4.912;2023-02-03T12:47:21;9.70;96.70
40123;DHT22;25832;45.490;4.912;2023-02-03T12:49:54;9.70;95.50
40123;DHT22;25832;45.490;4.912;2023-02-03T12:52:33;9.80;97.20
40123;DHT22;25832;45.490;4.912;2023-02-03T12:55:21;9.90;96.90
40123;DHT22;25832;45.490;4.912;2023-02-03T12:58:09;9.90;97.00
40123;DHT22;25832;45.490;4.912;2023-02-03T13:00:46;10.00;95.90
40123;DHT22;25832;45.490;4.912;2023-02-03T13:08:41;9.90;96.00
40123;DHT22;25832;45.490;4.912;2023-02-03T13:11:11;9.90;95.70
40123;DHT22;25832;45.490;4.912;2023-02-03T13:13:53;9.80;95.80
40123;DHT22;25832;45.490;4.912;2023-02-03T13:16:24;9.80;95.80
40123;DHT22;25832;45.490;4.912;2023-02-03T13:18:58;9.80;96.40
40123;DHT22;25832;45.490;4.912;2023-02-03T13:21:27;9.80;96.70
40123;DHT22;25832;45.490;4.912;2023-02-03T13:23:53;9.80;97.50
40123;DHT22;25832;45.490;4.912;2023-02-03T13:26:48;9.80;95.90
40123;DHT22;25832;45.490;4.912;2023-02-03T13:29:28;9.90;95.50
40123;DHT22;25832;45.490;4.912;2023-02-03T13:35:26;9.80;96.90
40123;DHT22;25832;45.490;4.912;2023-02-03T13:38:21;9.80;96.20
40123;DHT22;25832;45.490;4.912;2023-02-03T13:43:47;9.80;96.00
40123;DHT22;25832;45.490;4.912;2023-02-03T13:46:24;9.80;95.80
40123;DHT22;25832;45.490;4.912;2023-02-03T13:48:51;9.80;96.20
40123;DHT22;25832;45.490;4.912;2023-02-03T13:51:21;9.80;96.70
40123;DHT22;25832;45.490;4.912;2023-02-03T13:53:49;9.70;96.00
40123;DHT22;25832;45.490;4.912;2023-02-03T13:56:25;9.50;96.50
40123;DHT22;25832;45.490;4.912;2023-02-03T13:59:00;9.50;97.10
40123;DHT22;25832;45.490;4.912;2023-02-03T14:04:01;9.50;96.10
40123;DHT22;25832;45.490;4.912;2023-02-03T14:11:44;9.70;96.50
40123;DHT22;25832;45.490;4.912;2023-02-03T14:16:38;9.60;96.50
40123;DHT22;25832;45.490;4.912;2023-02-03T14:19:07;9.50;96.50
40123;DHT22;25832;45.490;4.912;2023-02-03T14:22:02;9.50;96.30
40123;DHT22;25832;45.490;4.912;2023-02-03T14:24:44;9.40;96.20
40123;DHT22;25832;45.490;4.912;2023-02-03T14:27:23;9.50;96.90
40123;DHT22;25832;45.490;4.912;2023-02-03T14:30:10;9.50;96.10
40123;DHT22;25832;45.490;4.912;2023-02-03T14:32:50;9.50;96.20
40123;DHT22;25832;45.490;4.912;2023-02-03T14:35:36;9.50;96.60
40123;DHT22;25832;45.490;4.912;2023-02-03T14:38:14;9.50;96.10
40123;DHT22;25832;45.490;4.912;2023-02-03T14:40:56;9.50;96.60
40123;DHT22;25832;45.490;4.912;2023-02-03T14:46:16;9.40;96.50
40123;DHT22;25832;45.490;4.912;2023-02-03T14:57:40;9.10;97.10
40123;DHT22;25832;45.490;4.912;2023-02-03T15:05:43;9.00;96.90
40123;DHT22;25832;45.490;4.912;2023-02-03T15:10:58;9.00;96.60
40123;DHT22;25832;45.490;4.912;2023-02-03T15:13:29;9.00;97.10
40123;DHT22;25832;45.490;4.912;2023-02-03T15:16:02;9.00;96.50
40123;DHT22;25832;45.490;4.912;2023-02-03T15:18:34;9.00;96.50
40123;DHT22;25832;45.490;4.912;2023-02-03T15:21:12;8.90;96.70
40123;DHT22;25832;45.490;4.912;2023-02-03T15:23:41;8.90;96.80
40123;DHT22;25832;45.490;4.912;2023-02-03T15:26:22;8.80;97.00
40123;DHT22;25832;45.490;4.912;2023-02-03T15:29:03;8.80;97.40
40123;DHT22;25832;45.490;4.912;2023-02-03T15:31:35;8.70;97.10
40123;DHT22;25832;45.490;4.912;2023-02-03T15:34:22;8.70;97.50
40123;DHT22;25832;45.490;4.912;2023-02-03T15:36:53;8.70;97.00
40123;DHT22;25832;45.490;4.912;2023-02-03T15:39:46;8.60;97.60
40123;DHT22;25832;45.490;4.912;2023-02-03T15:42:16;8.50;97.90
40123;DHT22;25832;45.490;4.912;2023-02-03T15:44:57;8.50;98.00
40123;DHT22;25832;45.490;4.912;2023-02-03T15:47:32;8.50;98.00
40123;DHT22;25832;45.490;4.912;2023-02-03T15:50:14;8.50;97.60
40123;DHT22;25832;45.490;4.912;2023-02-03T15:52:46;8.40;98.10
40123;DHT22;25832;45.490;4.912;2023-02-03T15:55:37;8.40;98.30
40123;DHT22;25832;45.490;4.912;2023-02-03T15:58:05;8.30;98.20
40123;DHT22;25832;45.490;4.912;2023-02-03T16:00:37;8.30;98.00
40123;DHT22;25832;45.490;4.912;2023-02-03T16:03:22;8.30;98.40
40123;DHT22;25832;45.490;4.912;2023-02-03T16:05:49;8.30;98.50
40123;DHT22;25832;45.490;4.912;2023-02-03T16:10:59;8.10;98.40
40123;DHT22;25832;45.490;4.912;2023-02-03T16:13:26;8.00;98.60
40123;DHT22;25832;45.490;4.912;2023-02-03T16:16:13;8.00;98.70
40123;DHT22;25832;45.490;4.912;2023-02-03T16:18:40;7.80;98.70
40123;DHT22;25832;45.490;4.912;2023-02-03T16:21:20;7.80;98.90
40123;DHT22;25832;45.490;4.912;2023-02-03T16:23:49;7.70;99.20
40123;DHT22;25832;45.490;4.912;2023-02-03T16:26:18;7.60;99.60
40123;DHT22;25832;45.490;4.912;2023-02-03T16:29:09;7.50;99.60
40123;DHT22;25832;45.490;4.912;2023-02-03T16:31:54;7.50;99.90
40123;DHT22;25832;45.490;4.912;2023-02-03T16:34:39;7.40;99.90
40123;DHT22;25832;45.490;4.912;2023-02-03T16:40:11;7.30;99.90
40123;DHT22;25832;45.490;4.912;2023-02-03T16:42:56;7.30;99.90
40123;DHT22;25832;45.490;4.912;2023-02-03T16:45:40;7.20;99.90
40123;DHT22;25832;45.490;4.912;2023-02-03T16:48:25;7.20;99.90
40123;DHT22;25832;45.490;4.912;2023-02-03T16:51:14;7.20;99.90
40123;DHT22;25832;45.490;4.912;2023-02-03T16:53:44;7.10;99.90
40123;DHT22;25832;45.490;4.912;2023-02-03T16:56:11;7.00;99.90
40123;DHT22;25832;45.490;4.912;2023-02-03T16:58:37;6.90;99.90
40123;DHT22;25832;45.490;4.912;2023-02-03T17:01:05;6.90;99.90
40123;DHT22;25832;45.490;4.912;2023-02-03T17:03:33;6.90;99.90
40123;DHT22;25832;45.490;4.912;2023-02-03T17:06:08;6.90;99.90
40123;DHT22;25832;45.490;4.912;2023-02-03T17:08:35;6.80;99.90
40123;DHT22;25832;45.490;4.912;2023-02-03T17:11:03;6.80;99.90
40123;DHT22;25832;45.490;4.912;2023-02-03T17:13:29;6.80;99.90
40123;DHT22;25832;45.490;4.912;2023-02-03T17:15:54;6.70;99.90
40123;DHT22;25832;45.490;4.912;2023-02-03T17:18:21;6.60;99.90
40123;DHT22;25832;45.490;4.912;2023-02-03T17:20:47;6.60;99.90
40123;DHT22;25832;45.490;4.912;2023-02-03T17:23:14;6.50;99.90
40123;DHT22;25832;45.490;4.912;2023-02-03T17:25:43;6.40;99.90
40123;DHT22;25832;45.490;4.912;2023-02-03T17:28:11;6.40;99.90
40123;DHT22;25832;45.490;4.912;2023-02-03T17:30:38;6.40;99.90
40123;DHT22;25832;45.490;4.912;2023-02-03T17:33:05;6.30;99.90
40123;DHT22;25832;45.490;4.912;2023-02-03T17:35:42;6.30;99.90
40123;DHT22;25832;45.490;4.912;2023-02-03T17:38:09;6.20;99.90
40123;DHT22;25832;45.490;4.912;2023-02-03T17:40:39;6.30;99.90
40123;DHT22;25832;45.490;4.912;2023-02-03T17:43:05;6.30;99.90
40123;DHT22;25832;45.490;4.912;2023-02-03T17:45:31;6.20;99.90
40123;DHT22;25832;45.490;4.912;2023-02-03T17:47:56;6.20;99.90
40123;DHT22;25832;45.490;4.912;2023-02-03T17:50:24;6.20;99.90
40123;DHT22;25832;45.490;4.912;2023-02-03T17:52:50;6.20;99.90
40123;DHT22;25832;45.490;4.912;2023-02-03T17:55:15;6.20;99.90
40123;DHT22;25832;45.490;4.912;2023-02-03T17:57:41;6.20;99.90
40123;DHT22;25832;45.490;4.912;2023-02-03T18:00:07;6.20;99.90
40123;DHT22;25832;45.490;4.912;2023-02-03T18:02:34;6.10;99.90
40123;DHT22;25832;45.490;4.912;2023-02-03T18:05:00;6.10;99.90
40123;DHT22;25832;45.490;4.912;2023-02-03T18:07:25;6.10;99.90
40123;DHT22;25832;45.490;4.912;2023-02-03T18:09:51;6.10;99.90
40123;DHT22;25832;45.490;4.912;2023-02-03T18:12:16;6.10;99.90
40123;DHT22;25832;45.490;4.912;2023-02-03T18:14:42;6.10;99.90
40123;DHT22;25832;45.490;4.912;2023-02-03T18:17:08;6.00;99.90
40123;DHT22;25832;45.490;4.912;2023-02-03T18:19:33;6.00;99.90
40123;DHT22;25832;45.490;4.912;2023-02-03T18:21:59;6.00;99.90
40123;DHT22;25832;45.490;4.912;2023-02-03T18:24:25;6.00;99.90
40123;DHT22;25832;45.490;4.912;2023-02-03T18:26:53;6.00;99.90
40123;DHT22;25832;45.490;4.912;2023-02-03T18:29:19;6.00;99.90
40123;DHT22;25832;45.490;4.912;2023-02-03T18:31:46;5.90;99.90
40123;DHT22;25832;45.490;4.912;2023-02-03T18:34:13;6.00;99.90
40123;DHT22;25832;45.490;4.912;2023-02-03T18:36:39;6.00;99.90
40123;DHT22;25832;45.490;4.912;2023-02-03T18:39:05;5.90;99.90
40123;DHT22;25832;45.490;4.912;2023-02-03T18:41:30;5.90;99.90